sensor_id;sensor_type;location;lat;lon;timestamp;P1;durP1;ratioP1;P2;durP2;ratioP2
37477;SDS011;23334;54.316;10.182;2023-02-11T00:02:01;23.00;;;9.67;;
37477;SDS011;23334;54.316;10.182;2023-02-11T00:04:28;26.43;;;9.17;;
37477;SDS011;23334;54.316;10.182;2023-02-11T00:06:54;22.33;;;7.87;;
37477;SDS011;23334;54.316;10.182;2023-02-11T00:09:19;22.43;;;8.40;;
37477;SDS011;23334;54.316;10.182;2023-02-11T00:11:45;20.00;;;9.40;;
37477;SDS011;23334;54.316;10.182;2023-02-11T00:14:11;31.20;;;10.80;;
37477;SDS011;23334;54.316;10.182;2023-02-11T00:16:36;41.63;;;9.50;;
37477;SDS011;23334;54.316;10.182;2023-02-11T00:19:02;37.60;;;11.20;;
37477;SDS011;23334;54.316;10.182;2023-02-11T00:21:30;40.43;;;10.83;;
37477;SDS011;23334;54.316;10.182;2023-02-11T00:23:56;19.40;;;9.00;;
37477;SDS011;23334;54.316;10.182;2023-02-11T00:26:24;29.43;;;10.17;;
37477;SDS011;23334;54.316;10.182;2023-02-11T00:28:52;19.53;;;8.63;;
37477;SDS011;23334;54.316;10.182;2023-02-11T00:31:19;25.90;;;10.17;;
37477;SDS011;23334;54.316;10.182;2023-02-11T00:33:46;22.40;;;10.37;;
37477;SDS011;23334;54.316;10.182;2023-02-11T00:36:16;25.70;;;11.33;;
37477;SDS011;23334;54.316;10.182;2023-02-11T00:38:46;33.30;;;10.70;;
37477;SDS011;23334;54.316;10.182;2023-02-11T00:41:14;22.83;;;9.33;;
37477;SDS011;23334;54.316;10.182;2023-02-11T00:43:40;25.07;;;10.70;;
37477;SDS011;23334;54.316;10.182;2023-02-11T00:46:05;37.97;;;11.20;;
37477;SDS011;23334;54.316;10.182;2023-02-11T00:48:32;22.57;;;9.43;;
37477;SDS011;23334;54.316;10.182;2023-02-11T00:50:58;30.37;;;11.67;;
37477;SDS011;23334;54.316;10.182;2023-02-11T00:53:23;30.97;;;10.83;;
37477;SDS011;23334;54.316;10.182;2023-02-11T00:55:49;30.07;;;11.40;;
37477;SDS011;23334;54.316;10.182;2023-02-11T00:58:15;32.70;;;10.80;;
37477;SDS011;23334;54.316;10.182;2023-02-11T01:00:40;36.50;;;11.50;;
37477;SDS011;23334;54.316;10.182;2023-02-11T01:03:06;34.40;;;10.07;;
37477;SDS011;23334;54.316;10.182;2023-02-11T01:05:32;25.77;;;10.27;;
37477;SDS011;23334;54.316;10.182;2023-02-11T01:07:57;40.30;;;11.97;;
37477;SDS011;23334;54.316;10.182;2023-02-11T01:10:23;34.83;;;12.33;;
37477;SDS011;23334;54.316;10.182;2023-02-11T01:12:49;35.67;;;11.27;;
37477;SDS011;23334;54.316;10.182;2023-02-11T01:15:15;33.90;;;13.23;;
37477;SDS011;23334;54.316;10.182;2023-02-11T01:17:42;22.07;;;10.87;;
37477;SDS011;23334;54.316;10.182;2023-02-11T01:20:10;40.40;;;12.20;;
37477;SDS011;23334;54.316;10.182;2023-02-11T01:22:39;61.27;;;14.13;;
37477;SDS011;23334;54.316;10.182;2023-02-11T01:25:05;30.10;;;11.50;;
37477;SDS011;23334;54.316;10.182;2023-02-11T01:27:31;44.43;;;13.60;;
37477;SDS011;23334;54.316;10.182;2023-02-11T01:29:57;33.83;;;12.20;;
37477;SDS011;23334;54.316;10.182;2023-02-11T01:32:22;44.30;;;14.40;;
37477;SDS011;23334;54.316;10.182;2023-02-11T01:34:48;33.70;;;12.77;;
37477;SDS011;23334;54.316;10.182;2023-02-11T01:37:13;42.50;;;11.47;;
37477;SDS011;23334;54.316;10.182;2023-02-11T01:39:39;41.80;;;14.50;;
37477;SDS011;23334;54.316;10.182;2023-02-11T01:42:05;42.20;;;12.17;;
37477;SDS011;23334;54.316;10.182;2023-02-11T01:44:32;44.17;;;14.10;;
37477;SDS011;23334;54.316;10.182;2023-02-11T01:47:00;48.33;;;14.83;;
37477;SDS011;23334;54.316;10.182;2023-02-11T01:49:35;24.23;;;11.70;;
37477;SDS011;23334;54.316;10.182;2023-02-11T01:52:09;31.37;;;12.90;;
37477;SDS011;23334;54.316;10.182;2023-02-11T01:54:37;40.33;;;13.23;;
37477;SDS011;23334;54.316;10.182;2023-02-11T01:57:29;38.93;;;13.43;;
37477;SDS011;23334;54.316;10.182;2023-02-11T02:02:39;35.87;;;14.07;;
37477;SDS011;23334;54.316;10.182;2023-02-11T02:08:06;36.23;;;14.20;;
37477;SDS011;23334;54.316;10.182;2023-02-11T02:10:54;39.63;;;14.17;;
37477;SDS011;23334;54.316;10.182;2023-02-11T02:13:22;40.63;;;13.80;;
37477;SDS011;23334;54.316;10.182;2023-02-11T02:15:52;35.57;;;12.57;;
37477;SDS011;23334;54.316;10.182;2023-02-11T02:21:21;50.10;;;14.20;;
37477;SDS011;23334;54.316;10.182;2023-02-11T02:24:03;39.73;;;13.40;;
37477;SDS011;23334;54.316;10.182;2023-02-11T02:35:04;38.13;;;14.03;;
37477;SDS011;23334;54.316;10.182;2023-02-11T02:37:38;41.03;;;13.27;;
37477;SDS011;23334;54.316;10.182;2023-02-11T02:40:12;40.30;;;12.37;;
37477;SDS011;23334;54.316;10.182;2023-02-11T02:42:42;37.00;;;12.50;;
37477;SDS011;23334;54.316;10.182;2023-02-11T02:45:08;42.73;;;13.80;;
37477;SDS011;23334;54.316;10.182;2023-02-11T02:47:36;36.17;;;13.10;;
37477;SDS011;23334;54.316;10.182;2023-02-11T02:50:02;48.67;;;15.37;;
37477;SDS011;23334;54.316;10.182;2023-02-11T02:55:03;33.53;;;14.47;;
37477;SDS011;23334;54.316;10.182;2023-02-11T02:57:57;38.57;;;12.40;;
37477;SDS011;23334;54.316;10.182;2023-02-11T03:06:12;35.50;;;13.43;;
37477;SDS011;23334;54.316;10.182;2023-02-11T03:08:59;43.33;;;13.80;;
37477;SDS011;23334;54.316;10.182;2023-02-11T03:12:34;49.73;;;13.70;;
37477;SDS011;23334;54.316;10.182;2023-02-11T03:15:49;42.83;;;12.37;;
37477;SDS011;23334;54.316;10.182;2023-02-11T03:22:37;42.77;;;13.83;;
37477;SDS011;23334;54.316;10.182;2023-02-11T03:30:11;42.50;;;13.30;;
37477;SDS011;23334;54.316;10.182;2023-02-11T03:33:09;38.07;;;11.73;;
37477;SDS011;23334;54.316;10.182;2023-02-11T03:36:38;26.03;;;10.70;;
37477;SDS011;23334;54.316;10.182;2023-02-11T03:49:24;25.63;;;10.33;;
37477;SDS011;23334;54.316;10.182;2023-02-11T03:51:58;38.20;;;10.03;;
37477;SDS011;23334;54.316;10.182;2023-02-11T03:54:40;29.37;;;8.13;;
37477;SDS011;23334;54.316;10.182;2023-02-11T03:57:33;31.23;;;9.10;;
37477;SDS011;23334;54.316;10.182;2023-02-11T04:09:57;32.73;;;8.73;;
37477;SDS011;23334;54.316;10.182;2023-02-11T04:12:51;24.40;;;7.33;;
37477;SDS011;23334;54.316;10.182;2023-02-11T04:15:21;26.57;;;8.40;;
37477;SDS011;23334;54.316;10.182;2023-02-11T04:17:48;43.20;;;8.30;;
37477;SDS011;23334;54.316;10.182;2023-02-11T04:20:26;26.73;;;7.77;;
37477;SDS011;23334;54.316;10.182;2023-02-11T04:23:27;33.43;;;7.63;;
37477;SDS011;23334;54.316;10.182;2023-02-11T04:30:10;44.07;;;8.03;;
37477;SDS011;23334;54.316;10.182;2023-02-11T04:32:55;37.07;;;8.30;;
37477;SDS011;23334;54.316;10.182;2023-02-11T04:35:55;22.50;;;7.43;;
37477;SDS011;23334;54.316;10.182;2023-02-11T04:38:45;37.10;;;8.27;;
37477;SDS011;23334;54.316;10.182;2023-02-11T04:41:38;35.07;;;8.80;;
37477;SDS011;23334;54.316;10.182;2023-02-11T04:51:34;27.80;;;8.47;;
37477;SDS011;23334;54.316;10.182;2023-02-11T05:01:11;32.67;;;8.10;;
37477;SDS011;23334;54.316;10.182;2023-02-11T05:33:48;35.30;;;6.77;;
37477;SDS011;23334;54.316;10.182;2023-02-11T05:37:23;25.57;;;6.93;;
37477;SDS011;23334;54.316;10.182;2023-02-11T05:43:58;15.87;;;6.37;;
37477;SDS011;23334;54.316;10.182;2023-02-11T05:47:12;22.23;;;7.03;;
37477;SDS011;23334;54.316;10.182;2023-02-11T05:49:50;30.10;;;8.03;;
37477;SDS011;23334;54.316;10.182;2023-02-11T06:03:31;24.37;;;5.90;;
37477;SDS011;23334;54.316;10.182;2023-02-11T06:06:56;24.83;;;5.93;;
37477;SDS011;23334;54.316;10.182;2023-02-11T06:10:18;24.43;;;6.27;;
37477;SDS011;23334;54.316;10.182;2023-02-11T06:13:44;17.50;;;5.17;;
37477;SDS011;23334;54.316;10.182;2023-02-11T06:20:16;14.40;;;6.27;;
37477;SDS011;23334;54.316;10.182;2023-02-11T06:23:52;16.63;;;5.37;;
37477;SDS011;23334;54.316;10.182;2023-02-11T06:26:35;16.10;;;5.03;;
37477;SDS011;23334;54.316;10.182;2023-02-11T06:46:42;28.90;;;5.43;;
37477;SDS011;23334;54.316;10.182;2023-02-11T06:57:09;12.60;;;4.10;;
37477;SDS011;23334;54.316;10.182;2023-02-11T07:07:28;20.90;;;5.57;;
37477;SDS011;23334;54.316;10.182;2023-02-11T07:14:20;22.67;;;5.87;;
37477;SDS011;23334;54.316;10.182;2023-02-11T07:20:53;14.80;;;4.80;;
37477;SDS011;23334;54.316;10.182;2023-02-11T07:23:20;22.90;;;4.70;;
37477;SDS011;23334;54.316;10.182;2023-02-11T07:26:04;23.93;;;5.20;;
37477;SDS011;23334;54.316;10.182;2023-02-11T07:28:55;31.30;;;5.50;;
37477;SDS011;23334;54.316;10.182;2023-02-11T07:34:54;18.73;;;5.90;;
37477;SDS011;23334;54.316;10.182;2023-02-11T07:40:39;23.03;;;4.70;;
37477;SDS011;23334;54.316;10.182;2023-02-11T07:43:05;16.77;;;5.13;;
37477;SDS011;23334;54.316;10.182;2023-02-11T07:49:12;16.37;;;6.20;;
37477;SDS011;23334;54.316;10.182;2023-02-11T07:55:28;24.93;;;6.00;;
37477;SDS011;23334;54.316;10.182;2023-02-11T07:58:36;14.17;;;4.50;;
37477;SDS011;23334;54.316;10.182;2023-02-11T08:01:14;45.23;;;5.37;;
37477;SDS011;23334;54.316;10.182;2023-02-11T08:04:22;23.03;;;6.00;;
37477;SDS011;23334;54.316;10.182;2023-02-11T08:07:44;16.23;;;4.10;;
37477;SDS011;23334;54.316;10.182;2023-02-11T08:17:15;23.57;;;5.03;;
37477;SDS011;23334;54.316;10.182;2023-02-11T08:24:04;20.80;;;4.20;;
37477;SDS011;23334;54.316;10.182;2023-02-11T08:27:36;28.03;;;5.63;;
37477;SDS011;23334;54.316;10.182;2023-02-11T08:30:52;17.07;;;3.80;;
37477;SDS011;23334;54.316;10.182;2023-02-11T08:33:31;38.30;;;5.57;;
37477;SDS011;23334;54.316;10.182;2023-02-11T08:37:13;27.67;;;4.40;;
37477;SDS011;23334;54.316;10.182;2023-02-11T08:40:48;29.60;;;3.93;;
37477;SDS011;23334;54.316;10.182;2023-02-11T08:44:37;16.80;;;4.10;;
37477;SDS011;23334;54.316;10.182;2023-02-11T08:48:13;21.83;;;3.60;;
37477;SDS011;23334;54.316;10.182;2023-02-11T08:50:39;21.20;;;4.90;;
37477;SDS011;23334;54.316;10.182;2023-02-11T09:17:42;11.70;;;3.87;;
37477;SDS011;23334;54.316;10.182;2023-02-11T09:27:29;19.27;;;4.33;;
37477;SDS011;23334;54.316;10.182;2023-02-11T09:33:18;13.37;;;3.00;;
37477;SDS011;23334;54.316;10.182;2023-02-11T09:35:54;18.17;;;3.37;;
37477;SDS011;23334;54.316;10.182;2023-02-11T09:38:39;27.33;;;3.63;;
37477;SDS011;23334;54.316;10.182;2023-02-11T09:41:05;11.10;;;3.57;;
37477;SDS011;23334;54.316;10.182;2023-02-11T09:43:48;10.90;;;2.80;;
37477;SDS011;23334;54.316;10.182;2023-02-11T09:46:17;16.97;;;3.53;;
37477;SDS011;23334;54.316;10.182;2023-02-11T09:48:46;6.97;;;3.20;;
37477;SDS011;23334;54.316;10.182;2023-02-11T09:53:51;10.60;;;3.03;;
37477;SDS011;23334;54.316;10.182;2023-02-11T09:56:24;11.13;;;2.83;;
37477;SDS011;23334;54.316;10.182;2023-02-11T09:58:51;13.10;;;2.80;;
37477;SDS011;23334;54.316;10.182;2023-02-11T10:01:29;14.10;;;2.50;;
37477;SDS011;23334;54.316;10.182;2023-02-11T10:07:40;12.37;;;2.93;;
37477;SDS011;23334;54.316;10.182;2023-02-11T10:15:47;20.87;;;3.77;;
37477;SDS011;23334;54.316;10.182;2023-02-11T10:21:38;20.80;;;3.03;;
37477;SDS011;23334;54.316;10.182;2023-02-11T10:24:22;19.03;;;3.70;;
37477;SDS011;23334;54.316;10.182;2023-02-11T10:26:49;25.23;;;3.50;;
37477;SDS011;23334;54.316;10.182;2023-02-11T10:32:03;17.60;;;3.50;;
37477;SDS011;23334;54.316;10.182;2023-02-11T10:34:40;11.50;;;3.03;;
37477;SDS011;23334;54.316;10.182;2023-02-11T10:37:07;15.30;;;4.23;;
37477;SDS011;23334;54.316;10.182;2023-02-11T10:39:36;13.57;;;3.20;;
37477;SDS011;23334;54.316;10.182;2023-02-11T10:42:08;20.00;;;3.23;;
37477;SDS011;23334;54.316;10.182;2023-02-11T10:44:37;20.00;;;3.53;;
37477;SDS011;23334;54.316;10.182;2023-02-11T10:47:21;32.80;;;3.00;;
37477;SDS011;23334;54.316;10.182;2023-02-11T10:49:49;13.77;;;3.33;;
37477;SDS011;23334;54.316;10.182;2023-02-11T10:52:19;10.13;;;2.50;;
37477;SDS011;23334;54.316;10.182;2023-02-11T10:55:00;14.93;;;2.13;;
37477;SDS011;23334;54.316;10.182;2023-02-11T10:57:40;8.90;;;2.63;;
37477;SDS011;23334;54.316;10.182;2023-02-11T11:02:43;12.23;;;2.57;;
37477;SDS011;23334;54.316;10.182;2023-02-11T11:05:14;6.10;;;2.03;;
37477;SDS011;23334;54.316;10.182;2023-02-11T11:07:50;12.10;;;2.80;;
37477;SDS011;23334;54.316;10.182;2023-02-11T11:10:41;8.03;;;2.27;;
37477;SDS011;23334;54.316;10.182;2023-02-11T11:18:33;5.60;;;2.10;;
37477;SDS011;23334;54.316;10.182;2023-02-11T11:21:00;7.30;;;1.90;;
37477;SDS011;23334;54.316;10.182;2023-02-11T11:23:31;7.70;;;2.40;;
37477;SDS011;23334;54.316;10.182;2023-02-11T11:26:01;10.13;;;1.60;;
37477;SDS011;23334;54.316;10.182;2023-02-11T11:28:39;7.57;;;1.87;;
37477;SDS011;23334;54.316;10.182;2023-02-11T11:31:29;7.47;;;2.20;;
37477;SDS011;23334;54.316;10.182;2023-02-11T11:33:55;3.37;;;1.63;;
37477;SDS011;23334;54.316;10.182;2023-02-11T11:36:29;12.77;;;2.37;;
37477;SDS011;23334;54.316;10.182;2023-02-11T11:39:01;7.37;;;1.90;;
37477;SDS011;23334;54.316;10.182;2023-02-11T11:41:48;8.47;;;2.10;;
37477;SDS011;23334;54.316;10.182;2023-02-11T11:46:49;6.93;;;2.00;;
37477;SDS011;23334;54.316;10.182;2023-02-11T11:52:40;6.50;;;1.30;;
37477;SDS011;23334;54.316;10.182;2023-02-11T11:58:11;12.23;;;2.40;;
37477;SDS011;23334;54.316;10.182;2023-02-11T12:21:33;7.53;;;1.70;;
37477;SDS011;23334;54.316;10.182;2023-02-11T12:26:44;5.00;;;1.77;;
37477;SDS011;23334;54.316;10.182;2023-02-11T12:37:44;10.23;;;2.00;;
37477;SDS011;23334;54.316;10.182;2023-02-11T12:40:40;9.17;;;2.20;;
37477;SDS011;23334;54.316;10.182;2023-02-11T12:43:21;6.23;;;1.53;;
37477;SDS011;23334;54.316;10.182;2023-02-11T12:48:29;6.40;;;2.00;;
37477;SDS011;23334;54.316;10.182;2023-02-11T12:51:19;10.73;;;2.07;;
37477;SDS011;23334;54.316;10.182;2023-02-11T12:56:39;5.40;;;1.47;;
37477;SDS011;23334;54.316;10.182;2023-02-11T12:59:30;11.07;;;2.60;;
37477;SDS011;23334;54.316;10.182;2023-02-11T13:02:03;5.93;;;1.90;;
37477;SDS011;23334;54.316;10.182;2023-02-11T13:04:55;14.80;;;1.83;;
37477;SDS011;23334;54.316;10.182;2023-02-11T13:07:26;8.73;;;2.73;;
37477;SDS011;23334;54.316;10.182;2023-02-11T13:09:58;11.53;;;2.83;;
37477;SDS011;23334;54.316;10.182;2023-02-11T13:12:46;11.33;;;2.80;;
37477;SDS011;23334;54.316;10.182;2023-02-11T13:15:32;7.20;;;3.20;;
37477;SDS011;23334;54.316;10.182;2023-02-11T13:21:28;15.57;;;2.20;;
37477;SDS011;23334;54.316;10.182;2023-02-11T13:26:50;6.50;;;1.40;;
37477;SDS011;23334;54.316;10.182;2023-02-11T13:29:35;7.90;;;1.63;;
37477;SDS011;23334;54.316;10.182;2023-02-11T13:32:05;8.60;;;1.40;;
37477;SDS011;23334;54.316;10.182;2023-02-11T13:42:51;13.30;;;2.47;;
37477;SDS011;23334;54.316;10.182;2023-02-11T13:45:33;7.90;;;2.67;;
37477;SDS011;23334;54.316;10.182;2023-02-11T13:48:06;8.07;;;2.30;;
37477;SDS011;23334;54.316;10.182;2023-02-11T13:50:45;10.67;;;2.20;;
37477;SDS011;23334;54.316;10.182;2023-02-11T13:53:13;11.03;;;1.83;;
37477;SDS011;23334;54.316;10.182;2023-02-11T13:55:41;5.93;;;2.20;;
37477;SDS011;23334;54.316;10.182;2023-02-11T14:03:24;9.83;;;2.53;;
37477;SDS011;23334;54.316;10.182;2023-02-11T14:11:41;6.57;;;1.60;;
37477;SDS011;23334;54.316;10.182;2023-02-11T14:45:41;6.53;;;1.70;;
37477;SDS011;23334;54.316;10.182;2023-02-11T14:52:43;13.63;;;2.07;;
37477;SDS011;23334;54.316;10.182;2023-02-11T15:06:57;3.00;;;1.40;;
37477;SDS011;23334;54.316;10.182;2023-02-11T15:20:35;6.43;;;1.93;;
37477;SDS011;23334;54.316;10.182;2023-02-11T15:58:22;14.20;;;2.27;;
37477;SDS011;23334;54.316;10.182;2023-02-11T16:00:49;10.93;;;1.87;;
37477;SDS011;23334;54.316;10.182;2023-02-11T16:03:19;6.43;;;1.90;;
37477;SDS011;23334;54.316;10.182;2023-02-11T16:05:51;11.50;;;1.97;;
37477;SDS011;23334;54.316;10.182;2023-02-11T19:14:36;9.27;;;3.70;;
37477;SDS011;23334;54.316;10.182;2023-02-11T19:17:03;5.83;;;2.80;;
37477;SDS011;23334;54.316;10.182;2023-02-11T19:57:42;10.27;;;2.77;;
37477;SDS011;23334;54.316;10.182;2023-02-11T20:01:25;9.63;;;5.10;;
37477;SDS011;23334;54.316;10.182;2023-02-11T20:08:40;9.47;;;5.23;;
37477;SDS011;23334;54.316;10.182;2023-02-11T20:15:25;4.60;;;3.83;;
37477;SDS011;23334;54.316;10.182;2023-02-11T20:19:06;5.50;;;3.73;;
37477;SDS011;23334;54.316;10.182;2023-02-11T20:28:13;7.80;;;4.27;;
37477;SDS011;23334;54.316;10.182;2023-02-11T20:44:13;5.17;;;4.27;;
37477;SDS011;23334;54.316;10.182;2023-02-11T21:08:48;6.33;;;4.53;;
37477;SDS011;23334;54.316;10.182;2023-02-11T21:15:52;7.33;;;5.30;;
37477;SDS011;23334;54.316;10.182;2023-02-11T21:43:04;7.70;;;5.80;;
37477;SDS011;23334;54.316;10.182;2023-02-11T21:45:30;7.50;;;5.20;;
37477;SDS011;23334;54.316;10.182;2023-02-11T21:48:17;9.50;;;5.20;;
37477;SDS011;23334;54.316;10.182;2023-02-11T21:58:29;8.10;;;5.80;;
37477;SDS011;23334;54.316;10.182;2023-02-11T22:01:52;8.57;;;5.30;;
37477;SDS011;23334;54.316;10.182;2023-02-11T22:22:39;17.17;;;7.13;;
37477;SDS011;23334;54.316;10.182;2023-02-11T22:25:35;12.00;;;6.47;;
37477;SDS011;23334;54.316;10.182;2023-02-11T22:29:09;8.90;;;5.30;;
37477;SDS011;23334;54.316;10.182;2023-02-11T22:31:36;10.93;;;6.97;;
37477;SDS011;23334;54.316;10.182;2023-02-11T22:34:02;13.93;;;7.40;;
37477;SDS011;23334;54.316;10.182;2023-02-11T22:36:30;13.53;;;5.93;;
37477;SDS011;23334;54.316;10.182;2023-02-11T22:39:02;12.53;;;7.37;;
37477;SDS011;23334;54.316;10.182;2023-02-11T22:55:35;10.77;;;7.20;;
37477;SDS011;23334;54.316;10.182;2023-02-11T22:59:13;13.57;;;7.50;;
37477;SDS011;23334;54.316;10.182;2023-02-11T23:31:28;6.73;;;4.73;;
37477;SDS011;23334;54.316;10.182;2023-02-11T23:35:32;10.20;;;5.53;;
37477;SDS011;23334;54.316;10.182;2023-02-11T23:42:52;9.30;;;5.37;;
37477;SDS011;23334;54.316;10.182;2023-02-11T23:59:54;9.07;;;3.30;;
